createdAt,value
2022-12-20T00:02:26.189Z,5.53
2022-12-20T00:04:52.757Z,5.03
2022-12-20T00:07:19.201Z,4.57
2022-12-20T00:09:45.642Z,4.63
2022-12-20T00:12:12.185Z,4.13
2022-12-20T00:14:38.632Z,3.27
2022-12-20T00:17:05.041Z,3.97
2022-12-20T00:19:31.580Z,3.63
2022-12-20T00:21:58.105Z,3.10
2022-12-20T00:24:26.561Z,3.37
2022-12-20T00:26:53.253Z,3.30
2022-12-20T00:29:19.693Z,3.33
2022-12-20T00:31:46.273Z,3.20
2022-12-20T00:34:12.868Z,2.60
2022-12-20T00:36:39.710Z,3.10
2022-12-20T00:39:06.152Z,2.50
2022-12-20T00:41:33.685Z,3.03
2022-12-20T00:44:00.784Z,2.50
2022-12-20T00:46:27.459Z,2.33
2022-12-20T00:48:55.052Z,2.47
2022-12-20T00:51:23.802Z,2.43
2022-12-20T00:53:50.285Z,2.40
2022-12-20T00:56:16.871Z,2.63
2022-12-20T00:58:44.037Z,2.70
2022-12-20T01:01:19.212Z,3.77
2022-12-20T01:03:45.883Z,2.40
2022-12-20T01:06:12.471Z,2.87
2022-12-20T01:08:39.463Z,2.30
2022-12-20T01:11:08.008Z,2.37
2022-12-20T01:13:35.738Z,2.80
2022-12-20T01:16:06.908Z,2.40
2022-12-20T01:18:33.376Z,2.27
2022-12-20T01:21:07.382Z,2.67
2022-12-20T01:23:33.849Z,2.77
2022-12-20T01:26:01.450Z,2.63
2022-12-20T01:28:28.871Z,2.93
2022-12-20T01:30:55.666Z,2.60
2022-12-20T01:33:22.246Z,2.40
2022-12-20T01:35:58.614Z,2.80
2022-12-20T01:38:25.677Z,2.93
2022-12-20T01:40:52.613Z,3.20
2022-12-20T01:43:19.773Z,2.87
2022-12-20T01:45:47.055Z,3.77
2022-12-20T01:48:18.997Z,2.87
2022-12-20T01:50:46.751Z,3.67
2022-12-20T01:53:13.274Z,2.57
2022-12-20T01:55:40.002Z,3.33
2022-12-20T01:58:08.338Z,3.13
2022-12-20T02:00:34.793Z,2.80
2022-12-20T02:03:03.298Z,3.77
2022-12-20T02:05:33.691Z,2.50
2022-12-20T02:08:00.125Z,3.37
2022-12-20T02:10:29.851Z,4.00
2022-12-20T02:13:04.886Z,3.30
2022-12-20T02:15:49.068Z,5.33
2022-12-20T02:18:20.635Z,3.57
2022-12-20T02:20:50.151Z,3.20
2022-12-20T02:23:16.579Z,3.00
2022-12-20T02:25:46.574Z,8.30
2022-12-20T02:28:15.764Z,3.30
2022-12-20T02:30:43.280Z,8.00
2022-12-20T02:33:11.404Z,4.53
2022-12-20T02:35:38.586Z,5.20
2022-12-20T02:38:25.053Z,5.00
2022-12-20T02:40:53.905Z,5.57
2022-12-20T02:43:41.161Z,4.70
2022-12-20T02:46:08.986Z,36.63
2022-12-20T02:48:37.320Z,6.40
2022-12-20T02:51:04.912Z,5.73
2022-12-20T02:53:31.649Z,5.80
2022-12-20T02:56:04.835Z,6.07
2022-12-20T02:58:37.876Z,6.10
2022-12-20T03:01:09.032Z,6.47
2022-12-20T03:03:36.273Z,5.90
2022-12-20T03:06:02.883Z,6.20
2022-12-20T03:08:29.996Z,8.00
2022-12-20T03:10:56.653Z,6.97
2022-12-20T03:13:23.816Z,7.40
2022-12-20T03:15:50.303Z,6.87
2022-12-20T03:18:16.751Z,6.67
2022-12-20T03:20:43.336Z,8.63
2022-12-20T03:23:09.826Z,7.67
2022-12-20T03:25:36.275Z,9.97
2022-12-20T03:28:02.740Z,9.10
2022-12-20T03:30:29.384Z,9.23
2022-12-20T03:32:55.891Z,11.03
2022-12-20T03:35:22.317Z,11.47
2022-12-20T03:37:48.813Z,10.83
2022-12-20T03:40:16.106Z,9.50
2022-12-20T03:42:42.922Z,10.30
2022-12-20T03:45:09.687Z,9.73
2022-12-20T03:47:36.161Z,9.07
2022-12-20T03:50:02.612Z,11.07
2022-12-20T03:52:29.067Z,10.00
2022-12-20T03:54:55.715Z,9.20
2022-12-20T03:57:22.165Z,8.57
2022-12-20T03:59:48.676Z,10.90
2022-12-20T04:02:15.322Z,9.20
2022-12-20T04:04:42.041Z,10.17
2022-12-20T04:07:08.645Z,9.80
2022-12-20T04:09:35.067Z,57.00
2022-12-20T04:12:01.549Z,10.63
2022-12-20T04:14:28.049Z,11.67
2022-12-20T04:16:54.527Z,9.73
2022-12-20T04:19:20.973Z,11.73
2022-12-20T04:21:47.463Z,11.17
2022-12-20T04:24:14.046Z,10.70
2022-12-20T04:26:40.737Z,11.00
2022-12-20T04:29:07.440Z,11.40
2022-12-20T04:31:34.018Z,13.83
2022-12-20T04:34:00.491Z,12.90
2022-12-20T04:36:27.028Z,12.30
2022-12-20T04:38:54.147Z,11.80
2022-12-20T04:41:23.386Z,13.13
2022-12-20T04:43:50.661Z,36.63
2022-12-20T04:46:18.167Z,17.30
2022-12-20T04:49:00.159Z,12.70
2022-12-20T04:51:27.343Z,14.40
2022-12-20T04:53:54.213Z,12.13
2022-12-20T04:56:21.972Z,11.83
2022-12-20T04:58:50.219Z,11.70
2022-12-20T05:01:17.159Z,11.70
2022-12-20T05:03:43.870Z,18.90
2022-12-20T05:06:10.464Z,12.07
2022-12-20T05:08:37.386Z,11.77
2022-12-20T05:11:04.651Z,13.30
2022-12-20T05:13:31.127Z,13.27
2022-12-20T05:15:58.140Z,14.60
2022-12-20T05:18:46.514Z,15.00
2022-12-20T05:21:33.916Z,12.83
2022-12-20T05:24:18.810Z,14.10
2022-12-20T05:29:25.673Z,11.87
2022-12-20T05:32:17.185Z,14.07
2022-12-20T05:34:46.764Z,12.93
2022-12-20T05:37:13.236Z,12.13
2022-12-20T05:39:39.649Z,14.37
2022-12-20T05:42:06.241Z,15.23
2022-12-20T05:44:32.713Z,17.23
2022-12-20T05:46:59.253Z,16.30
2022-12-20T05:49:25.815Z,17.53
2022-12-20T05:51:52.248Z,13.53
2022-12-20T05:54:18.681Z,13.23
2022-12-20T05:56:45.143Z,14.17
2022-12-20T05:59:11.652Z,15.23
2022-12-20T06:01:38.284Z,14.87
2022-12-20T06:04:05.194Z,14.67
2022-12-20T06:06:31.703Z,15.10
2022-12-20T06:08:58.123Z,15.50
2022-12-20T06:11:29.888Z,18.17
2022-12-20T06:13:56.773Z,13.77
2022-12-20T06:16:23.507Z,14.97
2022-12-20T06:18:50.210Z,14.30
2022-12-20T06:21:16.685Z,15.53
2022-12-20T06:23:43.171Z,16.20
2022-12-20T06:26:09.721Z,17.07
2022-12-20T06:28:42.585Z,17.30
2022-12-20T06:31:10.128Z,16.27
2022-12-20T06:33:36.616Z,17.53
2022-12-20T06:36:03.671Z,18.37
2022-12-20T06:38:30.162Z,16.80
2022-12-20T06:40:56.629Z,18.67
2022-12-20T06:43:23.061Z,23.20
2022-12-20T06:45:49.656Z,19.43
2022-12-20T06:48:16.228Z,18.50
2022-12-20T06:50:42.697Z,19.20
2022-12-20T06:53:09.187Z,28.33
2022-12-20T06:55:35.711Z,19.77
2022-12-20T06:58:03.459Z,23.00
2022-12-20T07:00:30.000Z,24.47
2022-12-20T07:02:56.572Z,26.10
2022-12-20T07:05:23.094Z,24.90
2022-12-20T07:07:49.812Z,23.97
2022-12-20T07:10:16.450Z,21.67
2022-12-20T07:12:47.672Z,24.33
2022-12-20T07:15:14.636Z,24.83
2022-12-20T07:17:41.063Z,25.17
2022-12-20T07:20:12.939Z,23.53
2022-12-20T07:22:40.299Z,26.47
2022-12-20T07:25:06.807Z,23.37
2022-12-20T07:27:33.264Z,24.20
2022-12-20T07:29:59.768Z,24.57
2022-12-20T07:32:26.234Z,24.97
2022-12-20T07:34:52.676Z,26.43
2022-12-20T07:37:19.494Z,23.53
2022-12-20T07:39:45.982Z,28.87
2022-12-20T07:42:12.484Z,28.47
2022-12-20T07:44:39.248Z,27.37
2022-12-20T07:47:06.048Z,32.17
2022-12-20T07:49:32.569Z,43.20
2022-12-20T07:52:00.050Z,28.57
2022-12-20T07:54:28.723Z,41.37
2022-12-20T07:57:04.163Z,28.83
2022-12-20T07:59:35.195Z,29.93
2022-12-20T08:02:04.927Z,25.40
2022-12-20T08:04:32.285Z,22.60
2022-12-20T08:06:59.845Z,27.13
2022-12-20T08:09:28.914Z,30.10
2022-12-20T08:11:55.791Z,27.00
2022-12-20T08:14:22.306Z,26.53
2022-12-20T08:16:48.949Z,26.37
2022-12-20T08:19:15.606Z,27.97
2022-12-20T08:21:42.082Z,23.90
2022-12-20T08:24:08.753Z,21.97
2022-12-20T08:26:39.647Z,37.57
2022-12-20T08:29:06.122Z,25.20
2022-12-20T08:31:32.687Z,22.40
2022-12-20T08:33:59.931Z,31.67
2022-12-20T08:36:26.356Z,35.40
2022-12-20T08:38:52.851Z,23.47
2022-12-20T08:41:19.339Z,22.97
2022-12-20T08:43:45.805Z,23.30
2022-12-20T08:46:12.650Z,33.40
2022-12-20T08:48:39.666Z,37.00
2022-12-20T08:51:07.898Z,20.80
2022-12-20T08:53:34.975Z,21.93
2022-12-20T08:56:04.524Z,21.37
2022-12-20T08:58:31.081Z,20.53
2022-12-20T09:01:04.554Z,21.30
2022-12-20T09:03:34.110Z,22.03
2022-12-20T09:06:00.817Z,24.73
2022-12-20T09:08:27.312Z,23.67
2022-12-20T09:10:54.078Z,21.13
2022-12-20T09:13:21.598Z,22.03
2022-12-20T09:15:48.153Z,20.87
2022-12-20T09:18:14.894Z,21.47
2022-12-20T09:20:47.094Z,20.37
2022-12-20T09:23:13.568Z,24.17
2022-12-20T09:25:40.089Z,22.10
2022-12-20T09:28:06.565Z,24.50
2022-12-20T09:30:33.197Z,20.23
2022-12-20T09:33:07.108Z,22.13
2022-12-20T09:35:36.906Z,20.43
2022-12-20T09:38:05.784Z,19.27
2022-12-20T09:40:32.753Z,21.67
2022-12-20T09:42:59.261Z,24.27
2022-12-20T09:45:28.293Z,19.20
2022-12-20T09:47:54.821Z,18.90
2022-12-20T09:50:27.188Z,21.73
2022-12-20T09:53:00.411Z,18.90
2022-12-20T09:55:26.812Z,18.27
2022-12-20T09:57:53.347Z,19.80
2022-12-20T10:00:20.459Z,19.60
2022-12-20T10:03:01.985Z,20.10
2022-12-20T10:05:53.652Z,22.27
2022-12-20T10:08:35.600Z,18.77
2022-12-20T10:11:20.776Z,20.53
2022-12-20T10:13:54.872Z,20.63
2022-12-20T10:16:27.267Z,20.37
2022-12-20T10:19:05.924Z,20.77
2022-12-20T10:21:47.567Z,19.63
2022-12-20T10:24:25.111Z,16.33
2022-12-20T10:26:51.817Z,17.40
2022-12-20T10:29:19.300Z,24.97
2022-12-20T10:31:46.034Z,24.93
2022-12-20T10:34:12.564Z,20.43
2022-12-20T10:36:39.110Z,21.00
2022-12-20T10:39:06.968Z,21.47
2022-12-20T10:41:53.721Z,19.30
2022-12-20T10:44:29.837Z,23.60
2022-12-20T10:47:00.276Z,26.90
2022-12-20T10:49:34.197Z,22.13
2022-12-20T10:52:12.088Z,21.67
2022-12-20T10:54:39.525Z,22.93
2022-12-20T10:57:15.269Z,20.93
2022-12-20T10:59:48.794Z,22.10
2022-12-20T11:02:40.608Z,21.47
2022-12-20T11:05:11.383Z,20.50
2022-12-20T11:10:45.001Z,22.23
2022-12-20T11:13:22.170Z,19.23
2022-12-20T11:15:50.300Z,20.07
2022-12-20T11:18:23.724Z,20.67
2022-12-20T11:20:58.622Z,19.87
2022-12-20T11:23:45.462Z,22.93
2022-12-20T11:26:11.889Z,26.90
2022-12-20T11:28:50.613Z,21.87
2022-12-20T11:31:20.185Z,19.10
2022-12-20T11:34:05.278Z,22.57
2022-12-20T11:36:37.967Z,24.00
2022-12-20T11:39:04.370Z,23.63
2022-12-20T11:41:36.465Z,26.90
2022-12-20T11:44:26.629Z,23.33
2022-12-20T11:47:00.040Z,25.67
2022-12-20T11:49:45.419Z,27.47
2022-12-20T11:52:11.956Z,21.20
2022-12-20T11:54:43.444Z,25.03
2022-12-20T11:57:55.179Z,19.60
2022-12-20T12:00:23.684Z,24.33
2022-12-20T12:03:22.503Z,19.93
2022-12-20T12:05:52.647Z,28.20
2022-12-20T12:08:21.706Z,23.20
2022-12-20T12:10:58.950Z,23.17
2022-12-20T12:13:27.742Z,19.93
2022-12-20T12:15:57.366Z,19.90
2022-12-20T12:18:25.143Z,19.10
2022-12-20T12:21:11.154Z,16.70
2022-12-20T12:23:40.538Z,16.40
2022-12-20T12:26:12.459Z,19.20
2022-12-20T12:28:39.239Z,17.97
2022-12-20T12:31:12.286Z,16.83
2022-12-20T12:33:43.499Z,18.30
2022-12-20T12:36:28.559Z,18.27
2022-12-20T12:39:20.126Z,17.33
2022-12-20T12:41:52.865Z,16.50
2022-12-20T12:44:19.351Z,16.60
2022-12-20T12:46:48.216Z,19.73
2022-12-20T12:49:22.579Z,18.20
2022-12-20T12:51:57.377Z,21.20
2022-12-20T12:54:26.096Z,19.37
2022-12-20T12:57:06.690Z,20.17
2022-12-20T12:59:33.365Z,20.03
2022-12-20T13:02:05.952Z,23.87
2022-12-20T13:04:51.319Z,24.53
2022-12-20T13:07:44.353Z,20.00
2022-12-20T13:10:17.301Z,18.63
2022-12-20T13:12:48.696Z,24.23
2022-12-20T13:15:21.309Z,23.60
2022-12-20T13:17:52.212Z,22.20
2022-12-20T13:20:19.102Z,24.53
2022-12-20T13:23:04.508Z,15.83
2022-12-20T13:25:31.581Z,18.17
2022-12-20T13:28:19.081Z,15.20
2022-12-20T13:30:46.553Z,19.23
2022-12-20T13:33:23.507Z,13.50
2022-12-20T13:36:22.106Z,17.20
2022-12-20T13:38:48.558Z,21.17
2022-12-20T13:41:26.897Z,18.20
2022-12-20T13:44:02.928Z,17.40
2022-12-20T13:46:40.321Z,15.23
2022-12-20T13:49:09.102Z,15.40
2022-12-20T13:51:35.681Z,14.97
2022-12-20T13:54:06.506Z,16.67
2022-12-20T13:56:42.462Z,17.37
2022-12-20T13:59:16.779Z,21.40
2022-12-20T14:01:50.666Z,20.23
2022-12-20T14:04:18.805Z,13.70
2022-12-20T14:06:50.667Z,15.13
2022-12-20T14:09:35.743Z,14.10
2022-12-20T14:12:19.515Z,18.20
2022-12-20T14:14:50.976Z,14.63
2022-12-20T14:17:17.953Z,20.40
2022-12-20T14:19:47.453Z,17.27
2022-12-20T14:22:14.251Z,16.10
2022-12-20T14:24:43.546Z,15.67
2022-12-20T14:27:13.912Z,16.90
2022-12-20T14:29:40.617Z,16.83
2022-12-20T14:32:18.132Z,14.63
2022-12-20T14:34:48.401Z,13.80
2022-12-20T14:37:28.855Z,15.23
2022-12-20T14:40:01.404Z,15.67
2022-12-20T14:42:32.727Z,15.50
2022-12-20T14:45:14.653Z,25.50
2022-12-20T14:47:49.427Z,33.20
2022-12-20T14:50:21.155Z,17.23
2022-12-20T14:52:47.979Z,19.97
2022-12-20T14:55:14.774Z,22.70
2022-12-20T14:57:47.301Z,14.20
2022-12-20T15:00:14.038Z,17.17
2022-12-20T15:03:01.704Z,24.80
2022-12-20T15:05:38.866Z,16.83
2022-12-20T15:08:14.463Z,20.43
2022-12-20T15:10:42.881Z,22.73
2022-12-20T15:13:16.300Z,15.90
2022-12-20T15:15:42.940Z,16.77
2022-12-20T15:18:11.438Z,16.90
2022-12-20T15:20:38.244Z,16.13
2022-12-20T15:23:09.718Z,17.10
2022-12-20T15:25:43.047Z,16.20
2022-12-20T15:28:13.632Z,16.20
2022-12-20T15:30:40.169Z,15.63
2022-12-20T15:33:06.881Z,14.10
2022-12-20T15:35:33.800Z,16.53
2022-12-20T15:38:00.242Z,14.53
2022-12-20T15:40:26.902Z,16.57
2022-12-20T15:42:53.444Z,15.33
2022-12-20T15:45:27.490Z,33.60
2022-12-20T15:47:54.882Z,17.60
2022-12-20T15:50:21.420Z,32.57
2022-12-20T15:52:48.671Z,22.23
2022-12-20T15:55:15.511Z,39.87
2022-12-20T15:57:41.974Z,25.17
2022-12-20T16:00:09.669Z,26.10
2022-12-20T16:02:36.397Z,22.50
2022-12-20T16:05:03.127Z,21.20
2022-12-20T16:07:29.778Z,19.10
2022-12-20T16:10:17.130Z,24.23
2022-12-20T16:12:44.005Z,23.23
2022-12-20T16:15:22.898Z,20.77
2022-12-20T16:17:49.686Z,20.33
2022-12-20T16:20:16.222Z,23.27
2022-12-20T16:22:42.766Z,22.53
2022-12-20T16:25:29.228Z,21.10
2022-12-20T16:27:55.714Z,18.57
2022-12-20T16:30:23.526Z,23.40
2022-12-20T16:32:50.036Z,21.33
2022-12-20T16:35:30.562Z,21.33
2022-12-20T16:37:58.323Z,19.93
2022-12-20T16:40:26.953Z,21.43
2022-12-20T16:42:54.140Z,23.43
2022-12-20T16:45:22.222Z,22.40
2022-12-20T16:47:49.244Z,19.33
2022-12-20T16:50:16.284Z,24.77
2022-12-20T16:52:43.053Z,26.40
2022-12-20T16:55:14.414Z,26.67
2022-12-20T16:57:40.955Z,33.07
2022-12-20T17:00:07.802Z,28.33
2022-12-20T17:02:34.581Z,34.07
2022-12-20T17:05:02.075Z,21.50
2022-12-20T17:07:28.788Z,22.37
2022-12-20T17:09:55.461Z,22.37
2022-12-20T17:12:22.625Z,18.67
2022-12-20T17:14:49.490Z,24.13
2022-12-20T17:17:16.369Z,25.17
2022-12-20T17:19:43.102Z,25.23
2022-12-20T17:24:56.176Z,39.50
2022-12-20T17:27:22.834Z,26.70
2022-12-20T17:29:51.181Z,29.47
2022-12-20T17:32:22.134Z,24.50
2022-12-20T17:34:49.065Z,26.77
2022-12-20T17:37:16.075Z,22.83
2022-12-20T17:39:42.679Z,20.60
2022-12-20T17:42:15.440Z,20.93
2022-12-20T17:44:42.083Z,18.90
2022-12-20T17:47:08.994Z,23.00
2022-12-20T17:49:35.725Z,24.27
2022-12-20T17:52:02.332Z,21.37
2022-12-20T17:54:36.574Z,34.10
2022-12-20T17:57:05.731Z,24.03
2022-12-20T17:59:32.228Z,21.47
2022-12-20T18:01:58.963Z,22.47
2022-12-20T18:04:26.773Z,19.00
2022-12-20T18:06:53.689Z,18.87
2022-12-20T18:09:21.177Z,16.83
2022-12-20T18:11:48.151Z,19.53
2022-12-20T18:14:15.393Z,16.10
2022-12-20T18:16:42.187Z,19.30
2022-12-20T18:19:14.490Z,20.80
2022-12-20T18:21:41.791Z,18.07
2022-12-20T18:24:11.503Z,18.30
2022-12-20T18:26:40.038Z,18.67
2022-12-20T18:29:06.856Z,17.47
2022-12-20T18:31:34.816Z,17.40
2022-12-20T18:34:02.201Z,16.13
2022-12-20T18:36:30.270Z,17.27
2022-12-20T18:38:58.119Z,15.33
2022-12-20T18:41:26.423Z,14.80
2022-12-20T18:43:53.751Z,17.37
2022-12-20T18:46:21.900Z,16.87
2022-12-20T18:48:50.819Z,19.20
2022-12-20T18:51:18.647Z,25.27
2022-12-20T18:53:47.489Z,21.10
2022-12-20T18:56:15.682Z,18.10
2022-12-20T18:58:43.114Z,21.73
2022-12-20T19:01:15.526Z,18.23
2022-12-20T19:03:42.842Z,16.93
2022-12-20T19:06:10.748Z,17.57
2022-12-20T19:08:37.554Z,16.73
2022-12-20T19:11:08.616Z,22.83
2022-12-20T19:13:36.688Z,18.47
2022-12-20T19:16:04.484Z,21.43
2022-12-20T19:18:31.301Z,16.20
2022-12-20T19:21:04.619Z,16.63
2022-12-20T19:23:31.309Z,22.47
2022-12-20T19:26:05.001Z,19.70
2022-12-20T19:28:33.116Z,20.30
2022-12-20T19:31:05.785Z,19.37
2022-12-20T19:33:32.519Z,23.40
2022-12-20T19:36:07.253Z,29.03
2022-12-20T19:38:33.837Z,27.87
2022-12-20T19:41:07.101Z,18.77
2022-12-20T19:43:33.807Z,18.63
2022-12-20T19:46:00.474Z,26.97
2022-12-20T19:48:27.049Z,25.13
2022-12-20T19:51:12.820Z,20.70
2022-12-20T19:53:40.482Z,20.80
2022-12-20T19:56:10.094Z,23.00
2022-12-20T19:58:37.209Z,25.53
2022-12-20T20:01:04.675Z,33.20
2022-12-20T20:03:32.786Z,38.30
2022-12-20T20:06:00.110Z,23.50
2022-12-20T20:08:26.932Z,23.60
2022-12-20T20:10:54.125Z,30.00
2022-12-20T20:13:20.838Z,24.87
2022-12-20T20:15:51.177Z,19.43
2022-12-20T20:18:18.099Z,17.37
2022-12-20T20:20:46.198Z,18.47
2022-12-20T20:23:13.331Z,18.77
2022-12-20T20:25:49.727Z,21.50
2022-12-20T20:28:16.722Z,20.33
2022-12-20T20:30:44.840Z,22.27
2022-12-20T20:33:12.327Z,28.83
2022-12-20T20:35:52.012Z,24.17
2022-12-20T20:38:24.105Z,23.00
2022-12-20T20:40:52.144Z,19.27
2022-12-20T20:43:19.826Z,22.13
2022-12-20T20:45:46.754Z,22.60
2022-12-20T20:48:13.480Z,20.97
2022-12-20T20:50:40.483Z,19.20
2022-12-20T20:53:07.484Z,21.53
2022-12-20T20:55:34.740Z,19.77
2022-12-20T20:58:01.943Z,19.70
2022-12-20T21:00:29.815Z,21.47
2022-12-20T21:02:56.572Z,20.30
2022-12-20T21:08:13.201Z,21.60
2022-12-20T21:10:40.039Z,19.83
2022-12-20T21:13:06.820Z,19.47
2022-12-20T21:15:33.794Z,19.43
2022-12-20T21:18:00.511Z,19.30
2022-12-20T21:20:27.223Z,18.33
2022-12-20T21:22:54.017Z,21.37
2022-12-20T21:25:20.714Z,22.63
2022-12-20T21:27:47.277Z,20.10
2022-12-20T21:30:14.079Z,18.37
2022-12-20T21:32:40.547Z,18.57
2022-12-20T21:35:07.102Z,18.07
2022-12-20T21:37:33.723Z,17.60
2022-12-20T21:40:00.227Z,19.03
2022-12-20T21:42:26.818Z,18.73
2022-12-20T21:44:53.359Z,18.10
2022-12-20T21:47:20.271Z,22.10
2022-12-20T21:49:46.826Z,17.80
2022-12-20T21:52:13.731Z,19.77
2022-12-20T21:54:40.454Z,17.13
2022-12-20T21:57:07.089Z,17.97
2022-12-20T21:59:33.848Z,19.23
2022-12-20T22:02:00.759Z,18.53
2022-12-20T22:04:27.839Z,19.70
2022-12-20T22:06:54.410Z,18.10
2022-12-20T22:09:20.955Z,18.47
2022-12-20T22:11:48.633Z,18.60
2022-12-20T22:14:15.778Z,19.13
2022-12-20T22:16:42.506Z,17.40
2022-12-20T22:19:11.401Z,19.47
2022-12-20T22:21:38.112Z,16.57
2022-12-20T22:24:04.886Z,16.37
2022-12-20T22:26:32.203Z,18.90
2022-12-20T22:28:59.987Z,18.77
2022-12-20T22:31:27.253Z,19.40
2022-12-20T22:33:54.838Z,16.87
2022-12-20T22:36:22.887Z,16.37
2022-12-20T22:38:53.127Z,16.30
2022-12-20T22:41:21.240Z,18.07
2022-12-20T22:43:47.878Z,18.57
2022-12-20T22:48:59.607Z,17.67
2022-12-20T22:51:27.587Z,15.03
2022-12-20T22:53:54.374Z,17.37
2022-12-20T22:56:21.828Z,19.43
2022-12-20T22:58:49.015Z,15.30
2022-12-20T23:01:16.339Z,16.70
2022-12-20T23:03:43.215Z,17.50
2022-12-20T23:06:12.050Z,19.20
2022-12-20T23:08:38.747Z,16.03
2022-12-20T23:11:28.042Z,18.43
2022-12-20T23:14:13.387Z,18.33
2022-12-20T23:16:40.075Z,25.23
2022-12-20T23:19:06.749Z,19.27
2022-12-20T23:21:52.101Z,19.87
2022-12-20T23:24:18.626Z,16.70
2022-12-20T23:26:45.114Z,18.90
2022-12-20T23:29:14.194Z,16.80
2022-12-20T23:31:40.923Z,16.10
2022-12-20T23:34:07.487Z,16.67
2022-12-20T23:36:34.088Z,15.83
2022-12-20T23:39:01.031Z,16.90
2022-12-20T23:41:27.729Z,16.50
2022-12-20T23:43:54.306Z,17.90
2022-12-20T23:46:22.045Z,17.50
2022-12-20T23:48:50.810Z,18.27
2022-12-20T23:51:17.962Z,18.83
2022-12-20T23:53:44.890Z,16.63
2022-12-20T23:56:12.903Z,18.67
2022-12-20T23:58:39.426Z,21.27
